sensor_id;sensor_type;location;lat;lon;timestamp;pressure;altitude;pressure_sealevel;temperature;humidity
11971;BME280;6045;42.682;23.294;2022-12-10T00:01:42;94014.25;;;9.78;88.59
11971;BME280;6045;42.682;23.294;2022-12-10T00:04:09;94015.47;;;9.70;88.48
11971;BME280;6045;42.682;23.294;2022-12-10T00:06:38;94015.31;;;9.77;89.03
11971;BME280;6045;42.682;23.294;2022-12-10T00:09:07;94024.06;;;9.89;89.03
11971;BME280;6045;42.682;23.294;2022-12-10T00:11:34;94017.09;;;9.88;88.77
11971;BME280;6045;42.682;23.294;2022-12-10T00:14:02;94007.81;;;9.90;88.87
11971;BME280;6045;42.682;23.294;2022-12-10T00:16:29;94021.09;;;10.02;89.07
11971;BME280;6045;42.682;23.294;2022-12-10T00:18:58;94017.69;;;10.06;89.09
11971;BME280;6045;42.682;23.294;2022-12-10T00:21:27;94015.50;;;10.03;88.60
11971;BME280;6045;42.682;23.294;2022-12-10T00:23:54;94017.59;;;10.01;88.27
11971;BME280;6045;42.682;23.294;2022-12-10T00:26:23;94008.00;;;10.00;88.55
11971;BME280;6045;42.682;23.294;2022-12-10T00:28:51;94014.16;;;10.01;88.18
11971;BME280;6045;42.682;23.294;2022-12-10T00:31:21;94010.66;;;10.00;88.07
11971;BME280;6045;42.682;23.294;2022-12-10T00:33:48;93996.59;;;10.05;87.80
11971;BME280;6045;42.682;23.294;2022-12-10T00:36:17;93995.28;;;10.07;87.44
11971;BME280;6045;42.682;23.294;2022-12-10T00:38:44;94018.56;;;9.95;87.46
11971;BME280;6045;42.682;23.294;2022-12-10T00:41:12;94010.63;;;9.84;88.38
11971;BME280;6045;42.682;23.294;2022-12-10T00:43:39;94009.09;;;9.88;88.76
11971;BME280;6045;42.682;23.294;2022-12-10T00:46:06;94001.44;;;9.91;87.86
11971;BME280;6045;42.682;23.294;2022-12-10T00:48:35;94002.22;;;9.92;88.35
11971;BME280;6045;42.682;23.294;2022-12-10T00:51:04;94010.16;;;9.87;88.27
11971;BME280;6045;42.682;23.294;2022-12-10T00:53:33;94002.94;;;9.87;88.33
11971;BME280;6045;42.682;23.294;2022-12-10T00:56:00;94019.97;;;9.70;88.40
11971;BME280;6045;42.682;23.294;2022-12-10T00:58:28;94007.31;;;9.77;88.92
11971;BME280;6045;42.682;23.294;2022-12-10T01:01:06;94010.00;;;9.93;89.20
11971;BME280;6045;42.682;23.294;2022-12-10T01:03:35;94011.09;;;9.81;88.74
11971;BME280;6045;42.682;23.294;2022-12-10T01:06:11;94005.41;;;9.89;88.15
11971;BME280;6045;42.682;23.294;2022-12-10T01:08:39;94005.28;;;9.84;88.29
11971;BME280;6045;42.682;23.294;2022-12-10T01:11:06;94015.34;;;9.93;88.71
11971;BME280;6045;42.682;23.294;2022-12-10T01:13:33;94021.81;;;9.97;87.99
11971;BME280;6045;42.682;23.294;2022-12-10T01:16:01;94012.59;;;10.05;88.18
11971;BME280;6045;42.682;23.294;2022-12-10T01:18:28;94012.31;;;10.18;88.39
11971;BME280;6045;42.682;23.294;2022-12-10T01:21:00;94004.22;;;10.13;88.11
11971;BME280;6045;42.682;23.294;2022-12-10T01:23:27;93996.44;;;10.11;88.20
11971;BME280;6045;42.682;23.294;2022-12-10T01:25:54;93994.19;;;10.20;88.46
11971;BME280;6045;42.682;23.294;2022-12-10T01:28:24;93997.44;;;10.22;88.72
11971;BME280;6045;42.682;23.294;2022-12-10T01:30:51;93991.13;;;10.11;88.46
11971;BME280;6045;42.682;23.294;2022-12-10T01:33:18;93990.00;;;10.24;88.86
11971;BME280;6045;42.682;23.294;2022-12-10T01:35:45;93986.13;;;10.15;89.18
11971;BME280;6045;42.682;23.294;2022-12-10T01:38:13;93968.03;;;10.05;88.74
11971;BME280;6045;42.682;23.294;2022-12-10T01:40:39;93994.41;;;10.02;88.89
11971;BME280;6045;42.682;23.294;2022-12-10T01:43:12;93988.31;;;9.90;89.38
11971;BME280;6045;42.682;23.294;2022-12-10T01:45:40;93998.66;;;9.86;89.33
11971;BME280;6045;42.682;23.294;2022-12-10T01:48:06;93987.84;;;9.93;89.95
11971;BME280;6045;42.682;23.294;2022-12-10T01:50:33;93990.78;;;10.08;89.60
11971;BME280;6045;42.682;23.294;2022-12-10T01:53:00;93994.13;;;10.15;88.55
11971;BME280;6045;42.682;23.294;2022-12-10T01:55:45;93991.63;;;9.97;88.90
11971;BME280;6045;42.682;23.294;2022-12-10T01:58:14;93981.53;;;9.99;89.58
11971;BME280;6045;42.682;23.294;2022-12-10T02:00:48;93970.63;;;10.00;89.23
11971;BME280;6045;42.682;23.294;2022-12-10T02:03:21;93970.53;;;9.95;89.45
11971;BME280;6045;42.682;23.294;2022-12-10T02:05:56;93976.13;;;9.94;89.78
11971;BME280;6045;42.682;23.294;2022-12-10T02:08:32;93971.81;;;9.93;89.97
11971;BME280;6045;42.682;23.294;2022-12-10T02:11:14;94000.72;;;9.96;90.27
11971;BME280;6045;42.682;23.294;2022-12-10T02:13:46;94004.31;;;9.90;90.58
11971;BME280;6045;42.682;23.294;2022-12-10T02:16:21;93990.09;;;9.84;91.44
11971;BME280;6045;42.682;23.294;2022-12-10T02:18:55;93998.59;;;9.98;91.16
11971;BME280;6045;42.682;23.294;2022-12-10T02:21:26;93984.78;;;10.01;91.69
11971;BME280;6045;42.682;23.294;2022-12-10T02:23:57;93968.25;;;10.04;91.37
11971;BME280;6045;42.682;23.294;2022-12-10T02:26:33;93956.75;;;10.03;91.34
11971;BME280;6045;42.682;23.294;2022-12-10T02:29:11;93959.94;;;10.00;91.75
11971;BME280;6045;42.682;23.294;2022-12-10T02:31:41;93969.72;;;9.95;91.59
11971;BME280;6045;42.682;23.294;2022-12-10T02:34:10;93964.63;;;9.93;91.67
11971;BME280;6045;42.682;23.294;2022-12-10T02:36:39;93945.22;;;9.98;91.62
11971;BME280;6045;42.682;23.294;2022-12-10T02:39:11;93960.59;;;9.91;91.57
11971;BME280;6045;42.682;23.294;2022-12-10T02:41:41;93956.78;;;9.87;92.12
11971;BME280;6045;42.682;23.294;2022-12-10T02:44:11;93948.34;;;9.95;91.34
11971;BME280;6045;42.682;23.294;2022-12-10T02:46:41;93958.56;;;9.98;91.67
11971;BME280;6045;42.682;23.294;2022-12-10T02:49:12;93949.66;;;9.92;92.02
11971;BME280;6045;42.682;23.294;2022-12-10T02:51:40;93953.78;;;10.00;91.41
11971;BME280;6045;42.682;23.294;2022-12-10T02:54:35;93954.69;;;10.05;91.90
11971;BME280;6045;42.682;23.294;2022-12-10T02:57:14;93952.88;;;10.11;91.68
11971;BME280;6045;42.682;23.294;2022-12-10T02:59:59;93960.91;;;10.11;91.14
11971;BME280;6045;42.682;23.294;2022-12-10T03:02:34;93940.94;;;10.13;91.41
11971;BME280;6045;42.682;23.294;2022-12-10T03:05:12;93953.09;;;10.21;90.95
11971;BME280;6045;42.682;23.294;2022-12-10T03:07:46;93941.94;;;10.24;91.13
11971;BME280;6045;42.682;23.294;2022-12-10T03:10:19;93949.44;;;10.27;91.28
11971;BME280;6045;42.682;23.294;2022-12-10T03:12:54;93953.09;;;10.21;91.45
11971;BME280;6045;42.682;23.294;2022-12-10T03:15:26;93948.38;;;10.28;92.19
11971;BME280;6045;42.682;23.294;2022-12-10T03:17:54;93955.34;;;10.29;91.95
11971;BME280;6045;42.682;23.294;2022-12-10T03:20:23;93936.56;;;10.07;92.90
11971;BME280;6045;42.682;23.294;2022-12-10T03:22:51;93940.03;;;10.08;92.40
11971;BME280;6045;42.682;23.294;2022-12-10T03:25:21;93942.03;;;10.12;92.29
11971;BME280;6045;42.682;23.294;2022-12-10T03:30:39;93942.28;;;9.99;92.77
11971;BME280;6045;42.682;23.294;2022-12-10T03:33:07;93937.72;;;10.11;93.08
11971;BME280;6045;42.682;23.294;2022-12-10T03:35:34;93935.94;;;10.17;92.89
11971;BME280;6045;42.682;23.294;2022-12-10T03:38:01;93950.03;;;10.29;92.96
11971;BME280;6045;42.682;23.294;2022-12-10T03:40:29;93944.16;;;10.32;92.22
11971;BME280;6045;42.682;23.294;2022-12-10T03:42:56;93932.44;;;10.33;91.96
11971;BME280;6045;42.682;23.294;2022-12-10T03:45:24;93945.97;;;10.26;91.05
11971;BME280;6045;42.682;23.294;2022-12-10T03:47:53;93943.66;;;10.02;92.21
11971;BME280;6045;42.682;23.294;2022-12-10T03:50:19;93923.38;;;10.01;92.93
11971;BME280;6045;42.682;23.294;2022-12-10T03:52:46;93889.31;;;10.08;93.26
11971;BME280;6045;42.682;23.294;2022-12-10T03:55:13;93903.00;;;10.11;93.60
11971;BME280;6045;42.682;23.294;2022-12-10T03:57:40;93907.34;;;10.17;94.25
11971;BME280;6045;42.682;23.294;2022-12-10T04:00:07;93904.53;;;10.24;94.73
11971;BME280;6045;42.682;23.294;2022-12-10T04:02:34;93908.97;;;10.18;95.11
11971;BME280;6045;42.682;23.294;2022-12-10T04:05:03;93922.34;;;10.18;95.47
11971;BME280;6045;42.682;23.294;2022-12-10T04:07:32;93923.31;;;10.29;95.75
11971;BME280;6045;42.682;23.294;2022-12-10T04:09:58;93921.03;;;10.38;96.03
11971;BME280;6045;42.682;23.294;2022-12-10T04:12:25;93901.09;;;10.45;95.87
11971;BME280;6045;42.682;23.294;2022-12-10T04:14:52;93936.47;;;10.52;95.08
11971;BME280;6045;42.682;23.294;2022-12-10T04:17:50;93928.53;;;10.57;95.16
11971;BME280;6045;42.682;23.294;2022-12-10T04:20:19;93908.53;;;10.60;94.53
11971;BME280;6045;42.682;23.294;2022-12-10T04:23:03;93925.34;;;10.60;94.40
11971;BME280;6045;42.682;23.294;2022-12-10T04:25:47;93920.50;;;10.57;93.96
11971;BME280;6045;42.682;23.294;2022-12-10T04:28:32;93922.38;;;10.57;93.67
11971;BME280;6045;42.682;23.294;2022-12-10T04:30:58;93949.38;;;10.60;93.07
11971;BME280;6045;42.682;23.294;2022-12-10T04:33:25;93931.75;;;10.59;93.40
11971;BME280;6045;42.682;23.294;2022-12-10T04:35:53;93937.41;;;10.63;93.48
11971;BME280;6045;42.682;23.294;2022-12-10T04:38:20;93941.81;;;10.52;92.54
11971;BME280;6045;42.682;23.294;2022-12-10T04:40:47;93946.47;;;10.62;92.94
11971;BME280;6045;42.682;23.294;2022-12-10T04:43:13;93932.94;;;10.68;92.16
11971;BME280;6045;42.682;23.294;2022-12-10T04:45:40;93935.75;;;10.78;91.87
11971;BME280;6045;42.682;23.294;2022-12-10T04:48:07;93949.59;;;10.75;92.09
11971;BME280;6045;42.682;23.294;2022-12-10T04:50:34;93944.44;;;10.69;91.79
11971;BME280;6045;42.682;23.294;2022-12-10T04:53:02;93941.84;;;10.74;92.69
11971;BME280;6045;42.682;23.294;2022-12-10T04:55:29;93941.59;;;10.75;92.86
11971;BME280;6045;42.682;23.294;2022-12-10T04:57:55;93944.56;;;10.79;92.92
11971;BME280;6045;42.682;23.294;2022-12-10T05:00:23;93935.34;;;10.70;93.39
11971;BME280;6045;42.682;23.294;2022-12-10T05:02:50;93941.03;;;10.73;93.76
11971;BME280;6045;42.682;23.294;2022-12-10T05:05:17;93947.75;;;10.76;93.01
11971;BME280;6045;42.682;23.294;2022-12-10T05:07:44;93931.44;;;10.77;93.57
11971;BME280;6045;42.682;23.294;2022-12-10T05:10:12;93929.88;;;10.81;93.28
11971;BME280;6045;42.682;23.294;2022-12-10T05:12:39;93952.84;;;10.77;93.61
11971;BME280;6045;42.682;23.294;2022-12-10T05:15:07;93934.53;;;10.69;93.46
11971;BME280;6045;42.682;23.294;2022-12-10T05:17:34;93942.69;;;10.79;95.95
11971;BME280;6045;42.682;23.294;2022-12-10T05:20:00;93922.50;;;10.88;96.20
11971;BME280;6045;42.682;23.294;2022-12-10T05:22:27;93901.50;;;10.97;96.93
11971;BME280;6045;42.682;23.294;2022-12-10T05:25:18;93902.97;;;12.21;100.00
11971;BME280;6045;42.682;23.294;2022-12-10T05:27:45;93914.03;;;12.77;100.00
11971;BME280;6045;42.682;23.294;2022-12-10T05:30:12;93910.38;;;12.93;100.00
11971;BME280;6045;42.682;23.294;2022-12-10T05:32:39;93914.22;;;13.07;100.00
11971;BME280;6045;42.682;23.294;2022-12-10T05:35:06;93945.38;;;13.13;92.47
11971;BME280;6045;42.682;23.294;2022-12-10T05:37:33;93946.00;;;12.83;88.32
11971;BME280;6045;42.682;23.294;2022-12-10T05:40:00;93928.16;;;12.57;90.75
11971;BME280;6045;42.682;23.294;2022-12-10T05:42:28;93928.03;;;12.89;94.41
11971;BME280;6045;42.682;23.294;2022-12-10T05:44:55;93938.78;;;12.89;90.26
11971;BME280;6045;42.682;23.294;2022-12-10T05:47:21;93934.69;;;12.76;89.24
11971;BME280;6045;42.682;23.294;2022-12-10T05:49:48;93944.31;;;12.72;89.10
11971;BME280;6045;42.682;23.294;2022-12-10T05:52:15;93953.50;;;12.45;87.06
11971;BME280;6045;42.682;23.294;2022-12-10T05:54:42;93943.84;;;12.07;88.87
11971;BME280;6045;42.682;23.294;2022-12-10T05:57:09;93928.44;;;11.92;89.72
11971;BME280;6045;42.682;23.294;2022-12-10T05:59:38;93938.28;;;11.82;89.77
11971;BME280;6045;42.682;23.294;2022-12-10T06:02:04;93958.47;;;11.46;92.97
11971;BME280;6045;42.682;23.294;2022-12-10T06:04:31;93950.69;;;11.18;93.63
11971;BME280;6045;42.682;23.294;2022-12-10T06:06:58;93951.63;;;11.07;94.26
11971;BME280;6045;42.682;23.294;2022-12-10T06:09:36;93966.03;;;11.06;94.92
11971;BME280;6045;42.682;23.294;2022-12-10T06:12:03;93963.56;;;10.99;95.02
11971;BME280;6045;42.682;23.294;2022-12-10T06:15:08;93964.66;;;11.03;96.09
11971;BME280;6045;42.682;23.294;2022-12-10T06:17:37;93949.84;;;10.95;95.86
11971;BME280;6045;42.682;23.294;2022-12-10T06:23:14;93958.00;;;11.06;95.72
11971;BME280;6045;42.682;23.294;2022-12-10T06:25:41;93952.94;;;11.04;96.47
11971;BME280;6045;42.682;23.294;2022-12-10T06:28:08;93946.06;;;11.13;96.26
11971;BME280;6045;42.682;23.294;2022-12-10T06:30:36;93939.72;;;11.19;95.57
11971;BME280;6045;42.682;23.294;2022-12-10T06:33:04;93909.94;;;11.11;95.15
11971;BME280;6045;42.682;23.294;2022-12-10T06:38:35;93917.91;;;11.06;95.59
11971;BME280;6045;42.682;23.294;2022-12-10T06:41:04;93923.75;;;11.02;96.16
11971;BME280;6045;42.682;23.294;2022-12-10T06:43:34;93936.94;;;11.09;96.79
11971;BME280;6045;42.682;23.294;2022-12-10T06:46:05;93946.06;;;10.91;97.59
11971;BME280;6045;42.682;23.294;2022-12-10T06:48:32;93928.47;;;10.95;97.94
11971;BME280;6045;42.682;23.294;2022-12-10T06:51:00;93948.19;;;11.11;97.27
11971;BME280;6045;42.682;23.294;2022-12-10T06:53:26;93966.16;;;11.16;97.42
11971;BME280;6045;42.682;23.294;2022-12-10T06:56:06;93964.25;;;11.11;97.78
11971;BME280;6045;42.682;23.294;2022-12-10T06:58:34;93956.56;;;11.20;98.12
11971;BME280;6045;42.682;23.294;2022-12-10T07:01:08;93957.81;;;11.34;98.76
11971;BME280;6045;42.682;23.294;2022-12-10T07:03:35;93969.94;;;11.41;98.42
11971;BME280;6045;42.682;23.294;2022-12-10T07:06:04;93956.56;;;11.41;97.58
11971;BME280;6045;42.682;23.294;2022-12-10T07:08:50;93964.72;;;11.51;96.92
11971;BME280;6045;42.682;23.294;2022-12-10T07:14:39;93969.31;;;11.56;94.43
11971;BME280;6045;42.682;23.294;2022-12-10T07:17:07;93960.47;;;11.55;95.33
11971;BME280;6045;42.682;23.294;2022-12-10T07:19:34;93952.78;;;11.64;95.25
11971;BME280;6045;42.682;23.294;2022-12-10T07:22:01;93947.78;;;11.68;95.25
11971;BME280;6045;42.682;23.294;2022-12-10T07:24:27;93936.84;;;11.74;94.54
11971;BME280;6045;42.682;23.294;2022-12-10T07:26:54;93942.72;;;11.71;93.76
11971;BME280;6045;42.682;23.294;2022-12-10T07:32:27;93926.53;;;11.61;93.79
11971;BME280;6045;42.682;23.294;2022-12-10T07:34:54;93931.13;;;11.65;93.89
11971;BME280;6045;42.682;23.294;2022-12-10T07:37:21;93933.00;;;11.65;93.30
11971;BME280;6045;42.682;23.294;2022-12-10T07:39:48;93927.78;;;11.75;92.78
11971;BME280;6045;42.682;23.294;2022-12-10T07:42:15;93926.69;;;11.76;92.88
11971;BME280;6045;42.682;23.294;2022-12-10T07:44:41;93943.63;;;11.82;93.14
11971;BME280;6045;42.682;23.294;2022-12-10T07:47:08;93947.63;;;11.79;92.49
11971;BME280;6045;42.682;23.294;2022-12-10T07:49:36;93941.50;;;11.84;92.90
11971;BME280;6045;42.682;23.294;2022-12-10T07:52:04;93934.13;;;11.96;92.72
11971;BME280;6045;42.682;23.294;2022-12-10T07:54:30;93930.16;;;12.03;92.29
11971;BME280;6045;42.682;23.294;2022-12-10T07:56:57;93928.31;;;12.09;91.47
11971;BME280;6045;42.682;23.294;2022-12-10T07:59:24;93923.81;;;12.14;90.41
11971;BME280;6045;42.682;23.294;2022-12-10T08:01:57;93924.97;;;12.23;90.24
11971;BME280;6045;42.682;23.294;2022-12-10T08:04:24;93917.97;;;12.22;89.70
11971;BME280;6045;42.682;23.294;2022-12-10T08:06:55;93908.59;;;12.20;89.80
11971;BME280;6045;42.682;23.294;2022-12-10T08:09:39;93890.72;;;12.30;89.38
11971;BME280;6045;42.682;23.294;2022-12-10T08:12:06;93896.38;;;12.39;89.04
11971;BME280;6045;42.682;23.294;2022-12-10T08:14:33;93897.22;;;12.45;89.27
11971;BME280;6045;42.682;23.294;2022-12-10T08:17:00;93894.84;;;12.48;89.37
11971;BME280;6045;42.682;23.294;2022-12-10T08:19:26;93900.56;;;12.62;89.21
11971;BME280;6045;42.682;23.294;2022-12-10T08:21:55;93887.75;;;12.79;89.21
11971;BME280;6045;42.682;23.294;2022-12-10T08:24:21;93901.19;;;12.84;88.26
11971;BME280;6045;42.682;23.294;2022-12-10T08:26:48;93897.16;;;12.81;88.53
11971;BME280;6045;42.682;23.294;2022-12-10T08:29:15;93903.38;;;12.92;88.53
11971;BME280;6045;42.682;23.294;2022-12-10T08:31:42;93881.97;;;13.02;87.69
11971;BME280;6045;42.682;23.294;2022-12-10T08:34:13;93874.19;;;13.00;86.57
11971;BME280;6045;42.682;23.294;2022-12-10T08:36:40;93891.56;;;12.83;87.43
11971;BME280;6045;42.682;23.294;2022-12-10T08:39:08;93888.34;;;12.81;87.92
11971;BME280;6045;42.682;23.294;2022-12-10T08:41:43;93878.97;;;12.83;87.80
11971;BME280;6045;42.682;23.294;2022-12-10T08:44:11;93874.72;;;12.97;87.81
11971;BME280;6045;42.682;23.294;2022-12-10T08:46:38;93883.34;;;13.04;87.45
11971;BME280;6045;42.682;23.294;2022-12-10T08:49:05;93878.81;;;13.10;86.80
11971;BME280;6045;42.682;23.294;2022-12-10T08:51:32;93878.91;;;13.50;87.01
11971;BME280;6045;42.682;23.294;2022-12-10T08:53:59;93878.16;;;14.20;85.56
11971;BME280;6045;42.682;23.294;2022-12-10T08:56:27;93859.00;;;14.72;83.15
11971;BME280;6045;42.682;23.294;2022-12-10T08:58:54;93870.72;;;15.12;80.26
11971;BME280;6045;42.682;23.294;2022-12-10T09:01:21;93877.28;;;15.39;78.78
11971;BME280;6045;42.682;23.294;2022-12-10T09:03:48;93881.31;;;15.42;77.88
11971;BME280;6045;42.682;23.294;2022-12-10T09:06:17;93875.41;;;15.40;78.12
11971;BME280;6045;42.682;23.294;2022-12-10T09:08:45;93865.03;;;15.67;77.70
11971;BME280;6045;42.682;23.294;2022-12-10T09:11:13;93854.22;;;16.39;75.40
11971;BME280;6045;42.682;23.294;2022-12-10T09:13:42;93846.13;;;16.92;71.96
11971;BME280;6045;42.682;23.294;2022-12-10T09:16:10;93847.69;;;17.83;69.94
11971;BME280;6045;42.682;23.294;2022-12-10T09:18:37;93850.59;;;18.69;66.15
11971;BME280;6045;42.682;23.294;2022-12-10T09:21:05;93856.63;;;19.21;63.93
11971;BME280;6045;42.682;23.294;2022-12-10T09:23:32;93847.50;;;19.17;62.99
11971;BME280;6045;42.682;23.294;2022-12-10T09:26:18;93841.06;;;18.99;63.53
11971;BME280;6045;42.682;23.294;2022-12-10T09:28:47;93839.88;;;18.91;64.06
11971;BME280;6045;42.682;23.294;2022-12-10T09:31:16;93822.50;;;19.33;64.79
11971;BME280;6045;42.682;23.294;2022-12-10T09:33:43;93821.38;;;19.97;61.08
11971;BME280;6045;42.682;23.294;2022-12-10T09:36:12;93819.75;;;20.32;59.06
11971;BME280;6045;42.682;23.294;2022-12-10T09:38:41;93815.97;;;20.41;59.58
11971;BME280;6045;42.682;23.294;2022-12-10T09:41:20;93822.50;;;20.40;59.85
11971;BME280;6045;42.682;23.294;2022-12-10T09:43:58;93811.38;;;20.51;58.39
11971;BME280;6045;42.682;23.294;2022-12-10T09:46:36;93810.22;;;20.74;57.83
11971;BME280;6045;42.682;23.294;2022-12-10T09:49:15;93796.09;;;20.94;57.00
11971;BME280;6045;42.682;23.294;2022-12-10T09:51:46;93802.50;;;20.98;56.78
11971;BME280;6045;42.682;23.294;2022-12-10T09:54:18;93814.47;;;20.35;57.24
11971;BME280;6045;42.682;23.294;2022-12-10T09:56:50;93812.00;;;20.03;58.70
11971;BME280;6045;42.682;23.294;2022-12-10T09:59:22;93802.16;;;19.71;59.16
11971;BME280;6045;42.682;23.294;2022-12-10T10:02:03;93793.75;;;20.17;59.85
11971;BME280;6045;42.682;23.294;2022-12-10T10:04:39;93795.53;;;21.05;56.69
11971;BME280;6045;42.682;23.294;2022-12-10T10:07:06;93783.22;;;21.08;56.41
11971;BME280;6045;42.682;23.294;2022-12-10T10:09:38;93777.94;;;21.94;55.16
11971;BME280;6045;42.682;23.294;2022-12-10T10:12:10;93795.44;;;22.82;51.78
11971;BME280;6045;42.682;23.294;2022-12-10T10:14:41;93787.97;;;22.99;51.07
11971;BME280;6045;42.682;23.294;2022-12-10T10:19:49;93777.34;;;23.94;48.65
11971;BME280;6045;42.682;23.294;2022-12-10T10:22:45;93772.09;;;23.39;49.40
11971;BME280;6045;42.682;23.294;2022-12-10T10:25:14;93772.28;;;22.96;50.11
11971;BME280;6045;42.682;23.294;2022-12-10T10:27:41;93761.06;;;22.52;50.43
11971;BME280;6045;42.682;23.294;2022-12-10T10:30:15;93753.81;;;22.56;51.02
11971;BME280;6045;42.682;23.294;2022-12-10T10:32:49;93748.22;;;22.52;52.27
11971;BME280;6045;42.682;23.294;2022-12-10T10:35:25;93739.81;;;22.28;52.85
11971;BME280;6045;42.682;23.294;2022-12-10T10:37:57;93737.84;;;22.37;52.17
11971;BME280;6045;42.682;23.294;2022-12-10T10:40:28;93732.97;;;22.68;51.59
11971;BME280;6045;42.682;23.294;2022-12-10T10:42:57;93747.66;;;22.84;50.62
11971;BME280;6045;42.682;23.294;2022-12-10T10:51:22;93729.28;;;22.73;50.22
11971;BME280;6045;42.682;23.294;2022-12-10T10:53:51;93727.94;;;23.17;48.76
11971;BME280;6045;42.682;23.294;2022-12-10T10:56:20;93717.44;;;22.98;50.10
11971;BME280;6045;42.682;23.294;2022-12-10T10:58:52;93715.03;;;22.67;51.01
11971;BME280;6045;42.682;23.294;2022-12-10T11:01:20;93719.31;;;22.05;51.52
11971;BME280;6045;42.682;23.294;2022-12-10T11:03:49;93718.25;;;21.97;51.74
11971;BME280;6045;42.682;23.294;2022-12-10T11:06:17;93717.28;;;21.85;52.14
11971;BME280;6045;42.682;23.294;2022-12-10T11:08:46;93712.47;;;21.99;51.45
11971;BME280;6045;42.682;23.294;2022-12-10T11:11:19;93697.72;;;22.08;51.60
11971;BME280;6045;42.682;23.294;2022-12-10T11:13:46;93697.13;;;21.86;53.27
11971;BME280;6045;42.682;23.294;2022-12-10T11:16:18;93682.06;;;21.88;53.48
11971;BME280;6045;42.682;23.294;2022-12-10T11:18:55;93678.69;;;21.65;53.94
11971;BME280;6045;42.682;23.294;2022-12-10T11:21:23;93666.06;;;21.78;52.78
11971;BME280;6045;42.682;23.294;2022-12-10T11:23:59;93663.69;;;21.59;53.55
11971;BME280;6045;42.682;23.294;2022-12-10T11:26:49;93664.31;;;21.31;55.29
11971;BME280;6045;42.682;23.294;2022-12-10T11:29:43;93660.06;;;20.82;55.91
11971;BME280;6045;42.682;23.294;2022-12-10T11:32:22;93662.94;;;20.77;55.65
11971;BME280;6045;42.682;23.294;2022-12-10T11:35:01;93655.56;;;20.69;56.52
11971;BME280;6045;42.682;23.294;2022-12-10T11:37:34;93671.03;;;20.68;56.92
11971;BME280;6045;42.682;23.294;2022-12-10T11:40:34;93651.56;;;20.66;56.06
11971;BME280;6045;42.682;23.294;2022-12-10T11:43:14;93666.31;;;20.34;58.24
11971;BME280;6045;42.682;23.294;2022-12-10T11:45:51;93650.66;;;20.40;57.28
11971;BME280;6045;42.682;23.294;2022-12-10T11:48:33;93666.94;;;20.09;58.38
11971;BME280;6045;42.682;23.294;2022-12-10T11:51:09;93652.66;;;19.95;59.53
11971;BME280;6045;42.682;23.294;2022-12-10T11:53:48;93648.19;;;19.91;58.77
11971;BME280;6045;42.682;23.294;2022-12-10T11:56:23;93657.16;;;19.69;59.11
11971;BME280;6045;42.682;23.294;2022-12-10T11:59:09;93630.56;;;19.49;60.33
11971;BME280;6045;42.682;23.294;2022-12-10T12:02:09;93644.06;;;19.27;60.71
11971;BME280;6045;42.682;23.294;2022-12-10T12:04:53;93651.97;;;19.01;61.63
11971;BME280;6045;42.682;23.294;2022-12-10T12:07:36;93650.69;;;18.98;62.14
11971;BME280;6045;42.682;23.294;2022-12-10T12:10:21;93629.78;;;18.77;62.50
11971;BME280;6045;42.682;23.294;2022-12-10T12:12:59;93628.50;;;18.61;62.71
11971;BME280;6045;42.682;23.294;2022-12-10T12:15:30;93603.16;;;18.29;63.62
11971;BME280;6045;42.682;23.294;2022-12-10T12:18:02;93619.88;;;17.91;65.12
11971;BME280;6045;42.682;23.294;2022-12-10T12:20:34;93632.06;;;17.10;67.86
11971;BME280;6045;42.682;23.294;2022-12-10T12:26:35;93606.91;;;16.96;68.67
11971;BME280;6045;42.682;23.294;2022-12-10T12:29:13;93591.31;;;16.93;68.92
11971;BME280;6045;42.682;23.294;2022-12-10T12:31:46;93613.50;;;16.71;69.46
11971;BME280;6045;42.682;23.294;2022-12-10T12:34:18;93589.16;;;16.58;70.35
11971;BME280;6045;42.682;23.294;2022-12-10T12:36:48;93583.88;;;16.66;70.46
11971;BME280;6045;42.682;23.294;2022-12-10T12:39:21;93560.78;;;16.60;71.02
11971;BME280;6045;42.682;23.294;2022-12-10T12:41:59;93560.63;;;16.52;71.47
11971;BME280;6045;42.682;23.294;2022-12-10T12:44:48;93576.81;;;16.52;72.30
11971;BME280;6045;42.682;23.294;2022-12-10T12:47:26;93576.03;;;16.27;72.88
11971;BME280;6045;42.682;23.294;2022-12-10T12:49:58;93569.28;;;16.06;73.64
11971;BME280;6045;42.682;23.294;2022-12-10T12:52:32;93571.63;;;15.94;74.40
11971;BME280;6045;42.682;23.294;2022-12-10T12:55:11;93556.09;;;15.86;75.00
11971;BME280;6045;42.682;23.294;2022-12-10T12:57:46;93568.38;;;15.92;74.87
11971;BME280;6045;42.682;23.294;2022-12-10T13:00:19;93554.19;;;15.87;74.87
11971;BME280;6045;42.682;23.294;2022-12-10T13:03:00;93558.44;;;15.69;76.27
11971;BME280;6045;42.682;23.294;2022-12-10T13:05:34;93550.59;;;15.72;76.22
11971;BME280;6045;42.682;23.294;2022-12-10T13:08:23;93531.63;;;15.83;75.69
11971;BME280;6045;42.682;23.294;2022-12-10T13:10:53;93546.47;;;15.80;76.39
11971;BME280;6045;42.682;23.294;2022-12-10T13:13:27;93547.78;;;15.83;76.34
11971;BME280;6045;42.682;23.294;2022-12-10T13:16:35;93541.09;;;15.80;76.43
11971;BME280;6045;42.682;23.294;2022-12-10T13:19:25;93548.06;;;15.81;76.15
11971;BME280;6045;42.682;23.294;2022-12-10T13:22:09;93541.34;;;15.79;76.73
11971;BME280;6045;42.682;23.294;2022-12-10T13:25:03;93532.34;;;15.88;76.37
11971;BME280;6045;42.682;23.294;2022-12-10T13:27:33;93526.88;;;15.93;76.47
11971;BME280;6045;42.682;23.294;2022-12-10T13:30:13;93520.41;;;15.94;75.80
11971;BME280;6045;42.682;23.294;2022-12-10T13:32:53;93511.53;;;15.94;75.72
11971;BME280;6045;42.682;23.294;2022-12-10T13:35:30;93503.72;;;15.92;75.93
11971;BME280;6045;42.682;23.294;2022-12-10T13:38:04;93507.13;;;15.79;76.41
11971;BME280;6045;42.682;23.294;2022-12-10T13:40:38;93485.06;;;15.77;76.37
11971;BME280;6045;42.682;23.294;2022-12-10T13:43:26;93483.50;;;15.71;76.72
11971;BME280;6045;42.682;23.294;2022-12-10T13:46:22;93496.31;;;15.60;77.18
11971;BME280;6045;42.682;23.294;2022-12-10T13:48:52;93488.41;;;15.45;77.94
11971;BME280;6045;42.682;23.294;2022-12-10T13:51:43;93485.44;;;15.47;77.80
11971;BME280;6045;42.682;23.294;2022-12-10T13:54:39;93502.19;;;15.39;78.84